sensor_id;sensor_type;location;lat;lon;timestamp;pressure;altitude;pressure_sealevel;temperature;humidity
26823;BME280;14852;51.910;8.878;2023-04-16T00:02:22;99897.94;;;12.95;65.15
26823;BME280;14852;51.910;8.878;2023-04-16T00:04:48;99895.22;;;12.96;64.62
26823;BME280;14852;51.910;8.878;2023-04-16T00:07:14;99898.69;;;12.97;64.98
26823;BME280;14852;51.910;8.878;2023-04-16T00:09:40;99899.53;;;12.97;64.72
26823;BME280;14852;51.910;8.878;2023-04-16T00:12:06;99905.66;;;12.96;64.86
26823;BME280;14852;51.910;8.878;2023-04-16T00:14:32;99906.50;;;12.97;64.78
26823;BME280;14852;51.910;8.878;2023-04-16T00:16:57;99903.06;;;12.96;64.94
26823;BME280;14852;51.910;8.878;2023-04-16T00:19:23;99898.78;;;12.95;64.93
26823;BME280;14852;51.910;8.878;2023-04-16T00:21:49;99897.09;;;12.94;65.07
26823;BME280;14852;51.910;8.878;2023-04-16T00:24:15;99896.25;;;12.94;64.91
26823;BME280;14852;51.910;8.878;2023-04-16T00:26:41;99898.94;;;12.92;64.79
26823;BME280;14852;51.910;8.878;2023-04-16T00:29:08;99896.47;;;12.91;64.78
26823;BME280;14852;51.910;8.878;2023-04-16T00:31:35;99898.94;;;12.92;64.80
26823;BME280;14852;51.910;8.878;2023-04-16T00:34:02;99898.94;;;12.92;64.92
26823;BME280;14852;51.910;8.878;2023-04-16T00:36:28;99891.31;;;12.89;64.92
26823;BME280;14852;51.910;8.878;2023-04-16T00:38:55;99895.69;;;12.89;65.11
26823;BME280;14852;51.910;8.878;2023-04-16T00:41:22;99898.41;;;12.87;64.94
26823;BME280;14852;51.910;8.878;2023-04-16T00:43:48;99904.53;;;12.86;64.76
26823;BME280;14852;51.910;8.878;2023-04-16T00:46:15;99910.69;;;12.85;64.74
26823;BME280;14852;51.910;8.878;2023-04-16T00:48:43;99905.47;;;12.85;65.10
26823;BME280;14852;51.910;8.878;2023-04-16T00:51:10;99893.44;;;12.83;64.77
26823;BME280;14852;51.910;8.878;2023-04-16T00:53:36;99909.09;;;12.83;64.99
26823;BME280;14852;51.910;8.878;2023-04-16T00:56:05;99903.03;;;12.82;65.05
26823;BME280;14852;51.910;8.878;2023-04-16T00:58:33;99915.22;;;12.82;64.81
26823;BME280;14852;51.910;8.878;2023-04-16T01:01:00;99913.56;;;12.81;65.23
26823;BME280;14852;51.910;8.878;2023-04-16T01:03:47;99906.47;;;12.83;64.72
26823;BME280;14852;51.910;8.878;2023-04-16T01:06:15;99916.16;;;12.81;65.16
26823;BME280;14852;51.910;8.878;2023-04-16T01:08:41;99916.28;;;12.79;65.02
26823;BME280;14852;51.910;8.878;2023-04-16T01:11:07;99914.50;;;12.80;65.10
26823;BME280;14852;51.910;8.878;2023-04-16T01:13:34;99911.06;;;12.79;65.31
26823;BME280;14852;51.910;8.878;2023-04-16T01:16:08;99913.56;;;12.81;65.09
26823;BME280;14852;51.910;8.878;2023-04-16T01:18:34;99918.88;;;12.79;65.28
26823;BME280;14852;51.910;8.878;2023-04-16T01:21:01;99916.38;;;12.78;65.27
26823;BME280;14852;51.910;8.878;2023-04-16T01:23:27;99912.91;;;12.77;65.14
26823;BME280;14852;51.910;8.878;2023-04-16T01:25:52;99924.28;;;12.76;64.86
26823;BME280;14852;51.910;8.878;2023-04-16T01:28:18;99922.59;;;12.75;64.96
26823;BME280;14852;51.910;8.878;2023-04-16T01:30:44;99924.34;;;12.75;64.86
26823;BME280;14852;51.910;8.878;2023-04-16T01:33:29;99929.56;;;12.75;65.21
26823;BME280;14852;51.910;8.878;2023-04-16T01:35:55;99930.41;;;12.75;64.90
26823;BME280;14852;51.910;8.878;2023-04-16T01:38:21;99939.06;;;12.76;64.97
26823;BME280;14852;51.910;8.878;2023-04-16T01:40:46;99937.41;;;12.75;65.18
26823;BME280;14852;51.910;8.878;2023-04-16T01:43:12;99937.41;;;12.75;64.91
26823;BME280;14852;51.910;8.878;2023-04-16T01:45:38;99938.31;;;12.74;65.11
26823;BME280;14852;51.910;8.878;2023-04-16T01:48:04;99944.47;;;12.73;65.18
26823;BME280;14852;51.910;8.878;2023-04-16T01:50:30;99945.31;;;12.73;65.27
26823;BME280;14852;51.910;8.878;2023-04-16T01:52:56;99943.63;;;12.72;65.09
26823;BME280;14852;51.910;8.878;2023-04-16T01:55:22;99948.06;;;12.70;65.20
26823;BME280;14852;51.910;8.878;2023-04-16T01:57:48;99949.84;;;12.69;65.16
26823;BME280;14852;51.910;8.878;2023-04-16T02:00:14;99951.72;;;12.67;65.10
26823;BME280;14852;51.910;8.878;2023-04-16T02:02:46;99947.22;;;12.69;65.40
26823;BME280;14852;51.910;8.878;2023-04-16T02:05:19;99948.06;;;12.70;65.14
26823;BME280;14852;51.910;8.878;2023-04-16T02:07:45;99948.91;;;12.70;65.13
26823;BME280;14852;51.910;8.878;2023-04-16T02:10:11;99945.38;;;12.72;65.11
26823;BME280;14852;51.910;8.878;2023-04-16T02:12:38;99946.44;;;12.69;65.42
26823;BME280;14852;51.910;8.878;2023-04-16T02:15:05;99946.44;;;12.69;64.89
26823;BME280;14852;51.910;8.878;2023-04-16T02:17:31;99951.72;;;12.67;65.19
26823;BME280;14852;51.910;8.878;2023-04-16T02:20:07;99949.84;;;12.69;65.05
26823;BME280;14852;51.910;8.878;2023-04-16T02:22:38;99948.19;;;12.68;65.23
26823;BME280;14852;51.910;8.878;2023-04-16T02:25:04;99945.59;;;12.68;65.12
26823;BME280;14852;51.910;8.878;2023-04-16T02:27:30;99951.72;;;12.67;64.90
26823;BME280;14852;51.910;8.878;2023-04-16T02:30:05;99949.19;;;12.66;64.97
26823;BME280;14852;51.910;8.878;2023-04-16T02:32:33;99949.28;;;12.64;65.15
26823;BME280;14852;51.910;8.878;2023-04-16T02:35:00;99947.59;;;12.63;65.25
26823;BME280;14852;51.910;8.878;2023-04-16T02:37:28;99946.75;;;12.63;65.03
26823;BME280;14852;51.910;8.878;2023-04-16T02:39:54;99946.69;;;12.64;65.32
26823;BME280;14852;51.910;8.878;2023-04-16T02:42:20;99953.56;;;12.65;65.06
26823;BME280;14852;51.910;8.878;2023-04-16T02:44:45;99956.25;;;12.64;65.31
26823;BME280;14852;51.910;8.878;2023-04-16T02:47:11;99956.19;;;12.65;65.38
26823;BME280;14852;51.910;8.878;2023-04-16T02:49:37;99957.94;;;12.65;65.07
26823;BME280;14852;51.910;8.878;2023-04-16T02:52:03;99960.56;;;12.65;65.40
26823;BME280;14852;51.910;8.878;2023-04-16T02:54:28;99959.63;;;12.66;65.13
26823;BME280;14852;51.910;8.878;2023-04-16T02:56:54;99970.91;;;12.66;65.16
26823;BME280;14852;51.910;8.878;2023-04-16T02:59:20;99961.31;;;12.67;65.15
26823;BME280;14852;51.910;8.878;2023-04-16T03:01:46;99957.88;;;12.66;64.88
26823;BME280;14852;51.910;8.878;2023-04-16T03:04:11;99963.16;;;12.65;65.12
26823;BME280;14852;51.910;8.878;2023-04-16T03:06:37;99964.09;;;12.64;64.80
26823;BME280;14852;51.910;8.878;2023-04-16T03:09:03;99963.06;;;12.66;65.08
26823;BME280;14852;51.910;8.878;2023-04-16T03:11:29;99968.28;;;12.66;65.27
26823;BME280;14852;51.910;8.878;2023-04-16T03:13:54;99964.75;;;12.67;65.04
26823;BME280;14852;51.910;8.878;2023-04-16T03:16:21;99964.75;;;12.67;65.24
26823;BME280;14852;51.910;8.878;2023-04-16T03:18:46;99959.53;;;12.67;64.93
26823;BME280;14852;51.910;8.878;2023-04-16T03:21:12;99965.78;;;12.65;64.79
26823;BME280;14852;51.910;8.878;2023-04-16T03:23:38;99964.25;;;12.61;64.96
26823;BME280;14852;51.910;8.878;2023-04-16T03:26:04;99967.88;;;12.58;65.28
26823;BME280;14852;51.910;8.878;2023-04-16T03:28:31;99967.13;;;12.56;64.97
26823;BME280;14852;51.910;8.878;2023-04-16T03:30:57;99973.44;;;12.52;65.32
26823;BME280;14852;51.910;8.878;2023-04-16T03:33:23;99970.16;;;12.49;65.34
26823;BME280;14852;51.910;8.878;2023-04-16T03:35:59;99970.25;;;12.47;65.04
26823;BME280;14852;51.910;8.878;2023-04-16T03:38:28;99970.53;;;12.43;65.06
26823;BME280;14852;51.910;8.878;2023-04-16T03:40:55;99968.94;;;12.40;65.14
26823;BME280;14852;51.910;8.878;2023-04-16T03:43:21;99968.16;;;12.38;65.17
26823;BME280;14852;51.910;8.878;2023-04-16T03:45:47;99973.47;;;12.37;65.11
26823;BME280;14852;51.910;8.878;2023-04-16T03:48:13;99978.66;;;12.37;65.04
26823;BME280;14852;51.910;8.878;2023-04-16T03:50:45;99973.75;;;12.32;65.30
26823;BME280;14852;51.910;8.878;2023-04-16T03:53:13;99981.63;;;12.30;65.07
26823;BME280;14852;51.910;8.878;2023-04-16T03:55:40;99980.97;;;12.27;65.12
26823;BME280;14852;51.910;8.878;2023-04-16T03:58:08;99981.13;;;12.24;64.80
26823;BME280;14852;51.910;8.878;2023-04-16T04:00:33;99982.06;;;12.23;65.30
26823;BME280;14852;51.910;8.878;2023-04-16T04:03:06;99987.38;;;12.21;65.24
26823;BME280;14852;51.910;8.878;2023-04-16T04:05:37;99991.66;;;12.22;65.10
26823;BME280;14852;51.910;8.878;2023-04-16T04:08:04;99994.25;;;12.22;65.03
26823;BME280;14852;51.910;8.878;2023-04-16T04:10:32;99991.66;;;12.22;65.18
26823;BME280;14852;51.910;8.878;2023-04-16T04:12:59;99992.56;;;12.21;64.72
26823;BME280;14852;51.910;8.878;2023-04-16T04:15:25;99992.56;;;12.21;64.82
26823;BME280;14852;51.910;8.878;2023-04-16T04:17:51;99989.13;;;12.21;64.71
26823;BME280;14852;51.910;8.878;2023-04-16T04:20:17;99995.34;;;12.18;65.02
26823;BME280;14852;51.910;8.878;2023-04-16T04:22:45;99995.41;;;12.17;65.03
26823;BME280;14852;51.910;8.878;2023-04-16T04:25:11;100009.44;;;12.14;65.06
26823;BME280;14852;51.910;8.878;2023-04-16T04:27:37;100006.84;;;12.14;64.62
26823;BME280;14852;51.910;8.878;2023-04-16T04:30:03;100008.78;;;12.11;64.84
26823;BME280;14852;51.910;8.878;2023-04-16T04:32:30;100010.72;;;12.07;65.19
26823;BME280;14852;51.910;8.878;2023-04-16T04:34:59;100014.31;;;12.05;64.73
26823;BME280;14852;51.910;8.878;2023-04-16T04:37:25;100018.75;;;12.03;64.90
26823;BME280;14852;51.910;8.878;2023-04-16T04:39:51;100022.47;;;11.99;64.86
26823;BME280;14852;51.910;8.878;2023-04-16T04:42:18;100020.03;;;11.95;64.72
26823;BME280;14852;51.910;8.878;2023-04-16T04:44:44;100019.34;;;11.92;64.60
26823;BME280;14852;51.910;8.878;2023-04-16T04:47:11;100027.25;;;11.90;64.76
26823;BME280;14852;51.910;8.878;2023-04-16T04:49:37;100035.13;;;11.89;64.63
26823;BME280;14852;51.910;8.878;2023-04-16T04:52:03;100032.63;;;11.87;64.58
26823;BME280;14852;51.910;8.878;2023-04-16T04:54:31;100036.16;;;11.86;64.77
26823;BME280;14852;51.910;8.878;2023-04-16T04:56:57;100040.53;;;11.86;64.83
26823;BME280;14852;51.910;8.878;2023-04-16T04:59:24;100040.53;;;11.86;64.44
26823;BME280;14852;51.910;8.878;2023-04-16T05:01:50;100044.88;;;11.85;64.52
26823;BME280;14852;51.910;8.878;2023-04-16T05:04:16;100047.50;;;11.85;64.87
26823;BME280;14852;51.910;8.878;2023-04-16T05:06:43;100041.44;;;11.85;64.60
26823;BME280;14852;51.910;8.878;2023-04-16T05:09:09;100047.41;;;11.87;64.29
26823;BME280;14852;51.910;8.878;2023-04-16T05:11:37;100051.69;;;11.88;64.28
26823;BME280;14852;51.910;8.878;2023-04-16T05:14:05;100056.16;;;11.86;64.83
26823;BME280;14852;51.910;8.878;2023-04-16T05:16:30;100057.13;;;11.83;64.55
26823;BME280;14852;51.910;8.878;2023-04-16T05:18:56;100064.19;;;11.81;64.31
26823;BME280;14852;51.910;8.878;2023-04-16T05:21:23;100068.84;;;11.75;64.47
26823;BME280;14852;51.910;8.878;2023-04-16T05:23:49;100080.41;;;11.69;64.64
26823;BME280;14852;51.910;8.878;2023-04-16T05:26:14;100079.72;;;11.66;64.44
26823;BME280;14852;51.910;8.878;2023-04-16T05:28:40;100081.72;;;11.60;64.53
26823;BME280;14852;51.910;8.878;2023-04-16T05:31:06;100085.25;;;11.59;64.59
26823;BME280;14852;51.910;8.878;2023-04-16T05:33:32;100082.88;;;11.55;64.48
26823;BME280;14852;51.910;8.878;2023-04-16T05:35:57;100087.16;;;11.56;64.67
26823;BME280;14852;51.910;8.878;2023-04-16T05:38:23;100095.88;;;11.55;64.47
26823;BME280;14852;51.910;8.878;2023-04-16T05:40:49;100091.59;;;11.54;64.81
26823;BME280;14852;51.910;8.878;2023-04-16T05:43:16;100093.38;;;11.53;64.59
26823;BME280;14852;51.910;8.878;2023-04-16T05:45:41;100103.78;;;11.53;64.63
26823;BME280;14852;51.910;8.878;2023-04-16T05:48:08;100105.44;;;11.54;64.79
26823;BME280;14852;51.910;8.878;2023-04-16T05:50:34;100107.06;;;11.57;64.62
26823;BME280;14852;51.910;8.878;2023-04-16T05:53:04;100110.50;;;11.57;64.35
26823;BME280;14852;51.910;8.878;2023-04-16T05:55:30;100117.41;;;11.58;64.75
26823;BME280;14852;51.910;8.878;2023-04-16T05:57:56;100119.84;;;11.61;64.30
26823;BME280;14852;51.910;8.878;2023-04-16T06:00:21;100118.25;;;11.59;64.50
26823;BME280;14852;51.910;8.878;2023-04-16T06:02:47;100120.06;;;11.57;64.73
26823;BME280;14852;51.910;8.878;2023-04-16T06:05:13;100122.00;;;11.53;64.76
26823;BME280;14852;51.910;8.878;2023-04-16T06:07:39;100132.50;;;11.52;64.45
26823;BME280;14852;51.910;8.878;2023-04-16T06:10:05;100128.19;;;11.51;64.31
26823;BME280;14852;51.910;8.878;2023-04-16T06:12:31;100123.84;;;11.51;64.61
26823;BME280;14852;51.910;8.878;2023-04-16T06:14:57;100129.81;;;11.53;64.26
26823;BME280;14852;51.910;8.878;2023-04-16T06:17:23;100132.41;;;11.53;64.33
26823;BME280;14852;51.910;8.878;2023-04-16T06:19:49;100130.56;;;11.55;64.23
26823;BME280;14852;51.910;8.878;2023-04-16T06:22:14;100132.16;;;11.58;64.37
26823;BME280;14852;51.910;8.878;2023-04-16T06:24:40;100132.31;;;11.55;64.38
26823;BME280;14852;51.910;8.878;2023-04-16T06:27:06;100131.66;;;11.51;64.51
26823;BME280;14852;51.910;8.878;2023-04-16T06:29:32;100136.16;;;11.48;64.71
26823;BME280;14852;51.910;8.878;2023-04-16T06:31:58;100134.47;;;11.47;64.34
26823;BME280;14852;51.910;8.878;2023-04-16T06:34:23;100142.34;;;11.45;64.64
26823;BME280;14852;51.910;8.878;2023-04-16T06:36:50;100141.44;;;11.46;64.79
26823;BME280;14852;51.910;8.878;2023-04-16T06:39:16;100148.41;;;11.46;64.57
26823;BME280;14852;51.910;8.878;2023-04-16T06:41:41;100144.88;;;11.47;64.35
26823;BME280;14852;51.910;8.878;2023-04-16T06:44:07;100149.94;;;11.50;64.76
26823;BME280;14852;51.910;8.878;2023-04-16T06:46:33;100152.41;;;11.53;64.27
26823;BME280;14852;51.910;8.878;2023-04-16T06:48:59;100149.69;;;11.54;64.51
26823;BME280;14852;51.910;8.878;2023-04-16T06:51:24;100153.13;;;11.55;64.59
26823;BME280;14852;51.910;8.878;2023-04-16T06:53:51;100148.03;;;11.53;64.22
26823;BME280;14852;51.910;8.878;2023-04-16T06:56:16;100153.84;;;11.58;64.20
26823;BME280;14852;51.910;8.878;2023-04-16T06:58:42;100160.78;;;11.58;64.22
26823;BME280;14852;51.910;8.878;2023-04-16T07:01:08;100163.19;;;11.63;64.35
26823;BME280;14852;51.910;8.878;2023-04-16T07:03:34;100167.16;;;11.70;64.13
26823;BME280;14852;51.910;8.878;2023-04-16T07:06:00;100170.38;;;11.75;64.26
26823;BME280;14852;51.910;8.878;2023-04-16T07:08:26;100174.50;;;11.79;64.11
26823;BME280;14852;51.910;8.878;2023-04-16T07:10:53;100174.50;;;11.79;64.12
26823;BME280;14852;51.910;8.878;2023-04-16T07:13:19;100182.41;;;11.77;64.01
26823;BME280;14852;51.910;8.878;2023-04-16T07:15:46;100183.34;;;11.76;64.01
26823;BME280;14852;51.910;8.878;2023-04-16T07:18:12;100183.09;;;11.81;63.94
26823;BME280;14852;51.910;8.878;2023-04-16T07:20:38;100182.09;;;11.83;63.92
26823;BME280;14852;51.910;8.878;2023-04-16T07:23:03;100194.06;;;11.87;63.83
26823;BME280;14852;51.910;8.878;2023-04-16T07:25:29;100185.31;;;11.88;63.97
26823;BME280;14852;51.910;8.878;2023-04-16T07:27:55;100193.88;;;11.90;63.68
26823;BME280;14852;51.910;8.878;2023-04-16T07:30:21;100185.94;;;11.93;63.53
26823;BME280;14852;51.910;8.878;2023-04-16T07:32:46;100190.59;;;12.04;63.86
26823;BME280;14852;51.910;8.878;2023-04-16T07:35:12;100187.75;;;12.09;63.30
26823;BME280;14852;51.910;8.878;2023-04-16T07:37:38;100192.63;;;12.15;63.32
26823;BME280;14852;51.910;8.878;2023-04-16T07:40:04;100199.97;;;12.24;63.05
26823;BME280;14852;51.910;8.878;2023-04-16T07:42:30;100195.88;;;12.36;63.23
26823;BME280;14852;51.910;8.878;2023-04-16T07:44:56;100191.88;;;12.46;63.11
26823;BME280;14852;51.910;8.878;2023-04-16T07:47:22;100193.16;;;12.54;63.15
26823;BME280;14852;51.910;8.878;2023-04-16T07:49:48;100196.34;;;12.59;62.55
26823;BME280;14852;51.910;8.878;2023-04-16T07:52:15;100201.63;;;12.58;62.48
26823;BME280;14852;51.910;8.878;2023-04-16T07:54:40;100205.19;;;12.57;62.85
26823;BME280;14852;51.910;8.878;2023-04-16T07:57:06;100203.31;;;12.59;62.90
26823;BME280;14852;51.910;8.878;2023-04-16T07:59:32;100219.97;;;12.56;63.09
26823;BME280;14852;51.910;8.878;2023-04-16T08:01:58;100224.16;;;12.59;63.05
26823;BME280;14852;51.910;8.878;2023-04-16T08:04:23;100222.09;;;12.65;63.09
26823;BME280;14852;51.910;8.878;2023-04-16T08:06:50;100220.81;;;12.73;62.80
26823;BME280;14852;51.910;8.878;2023-04-16T08:09:18;100221.16;;;12.82;62.55
26823;BME280;14852;51.910;8.878;2023-04-16T08:11:44;100222.94;;;12.82;62.07
26823;BME280;14852;51.910;8.878;2023-04-16T08:14:09;100232.63;;;12.80;62.46
26823;BME280;14852;51.910;8.878;2023-04-16T08:16:35;100235.25;;;12.80;62.77
26823;BME280;14852;51.910;8.878;2023-04-16T08:19:01;100233.72;;;12.76;62.32
26823;BME280;14852;51.910;8.878;2023-04-16T08:21:27;100235.56;;;12.74;62.67
26823;BME280;14852;51.910;8.878;2023-04-16T08:23:53;100231.78;;;12.79;62.64
26823;BME280;14852;51.910;8.878;2023-04-16T08:26:19;100232.06;;;12.90;62.45
26823;BME280;14852;51.910;8.878;2023-04-16T08:28:45;100223.38;;;13.05;61.93
26823;BME280;14852;51.910;8.878;2023-04-16T08:31:11;100225.84;;;13.24;61.82
26823;BME280;14852;51.910;8.878;2023-04-16T08:33:36;100234.22;;;13.45;61.20
26823;BME280;14852;51.910;8.878;2023-04-16T08:36:02;100236.69;;;13.48;60.85
26823;BME280;14852;51.910;8.878;2023-04-16T08:38:28;100240.13;;;13.49;61.45
26823;BME280;14852;51.910;8.878;2023-04-16T08:40:55;100245.75;;;13.57;61.47
26823;BME280;14852;51.910;8.878;2023-04-16T08:43:23;100251.81;;;13.57;61.29
26823;BME280;14852;51.910;8.878;2023-04-16T08:45:50;100252.56;;;13.59;61.74
26823;BME280;14852;51.910;8.878;2023-04-16T08:48:19;100250.81;;;13.60;61.49
26823;BME280;14852;51.910;8.878;2023-04-16T08:50:49;100253.41;;;13.60;61.35
26823;BME280;14852;51.910;8.878;2023-04-16T08:53:18;100259.38;;;13.62;61.45
26823;BME280;14852;51.910;8.878;2023-04-16T08:55:49;100246.16;;;13.65;61.27
26823;BME280;14852;51.910;8.878;2023-04-16T08:58:20;100256.44;;;13.68;61.59
26823;BME280;14852;51.910;8.878;2023-04-16T09:00:47;100257.53;;;13.64;61.62
26823;BME280;14852;51.910;8.878;2023-04-16T09:03:13;100260.97;;;13.64;61.17
26823;BME280;14852;51.910;8.878;2023-04-16T09:05:41;100254.66;;;13.68;61.33
26823;BME280;14852;51.910;8.878;2023-04-16T09:08:07;100255.13;;;13.75;60.88
26823;BME280;14852;51.910;8.878;2023-04-16T09:10:34;100260.88;;;13.82;61.23
26823;BME280;14852;51.910;8.878;2023-04-16T09:13:00;100264.63;;;13.92;60.93
26823;BME280;14852;51.910;8.878;2023-04-16T09:15:26;100258.94;;;13.99;60.55
26823;BME280;14852;51.910;8.878;2023-04-16T09:17:52;100260.63;;;14.00;60.64
26823;BME280;14852;51.910;8.878;2023-04-16T09:20:18;100263.06;;;14.03;60.74
26823;BME280;14852;51.910;8.878;2023-04-16T09:22:45;100265.81;;;14.16;60.92
26823;BME280;14852;51.910;8.878;2023-04-16T09:25:11;100264.03;;;14.31;60.85
26823;BME280;14852;51.910;8.878;2023-04-16T09:27:38;100264.03;;;14.31;59.98
26823;BME280;14852;51.910;8.878;2023-04-16T09:30:24;100265.91;;;14.29;60.21
26823;BME280;14852;51.910;8.878;2023-04-16T09:32:52;100267.09;;;14.23;60.54
26823;BME280;14852;51.910;8.878;2023-04-16T09:35:53;100269.63;;;14.25;60.63
26823;BME280;14852;51.910;8.878;2023-04-16T09:38:19;100274.41;;;14.18;60.22
26823;BME280;14852;51.910;8.878;2023-04-16T09:40:45;100280.81;;;14.12;60.36
26823;BME280;14852;51.910;8.878;2023-04-16T09:43:18;100279.97;;;14.12;61.05
26823;BME280;14852;51.910;8.878;2023-04-16T09:45:51;100281.75;;;14.11;60.51
26823;BME280;14852;51.910;8.878;2023-04-16T09:48:38;100278.28;;;14.11;60.78
26823;BME280;14852;51.910;8.878;2023-04-16T09:51:05;100281.75;;;14.11;61.00
26823;BME280;14852;51.910;8.878;2023-04-16T09:53:31;100288.19;;;14.06;60.51
26823;BME280;14852;51.910;8.878;2023-04-16T09:56:00;100280.50;;;14.03;60.79
26823;BME280;14852;51.910;8.878;2023-04-16T09:58:26;100291.81;;;14.03;60.70
26823;BME280;14852;51.910;8.878;2023-04-16T10:01:10;100297.78;;;14.05;60.38
26823;BME280;14852;51.910;8.878;2023-04-16T10:03:38;100292.81;;;14.01;60.54
26823;BME280;14852;51.910;8.878;2023-04-16T10:08:48;100297.38;;;13.97;60.89
26823;BME280;14852;51.910;8.878;2023-04-16T10:11:16;100299.91;;;13.99;60.44
26823;BME280;14852;51.910;8.878;2023-04-16T10:13:42;100302.94;;;14.07;60.44
26823;BME280;14852;51.910;8.878;2023-04-16T10:16:08;100301.38;;;14.19;60.34
26823;BME280;14852;51.910;8.878;2023-04-16T10:18:40;100298.69;;;14.34;59.89
26823;BME280;14852;51.910;8.878;2023-04-16T10:21:06;100305.66;;;14.49;59.84
26823;BME280;14852;51.910;8.878;2023-04-16T10:23:33;100304.06;;;14.61;59.60
26823;BME280;14852;51.910;8.878;2023-04-16T10:26:00;100297.63;;;14.67;59.43
26823;BME280;14852;51.910;8.878;2023-04-16T10:28:26;100296.50;;;14.71;59.46
26823;BME280;14852;51.910;8.878;2023-04-16T10:30:56;100303.53;;;14.70;59.74
26823;BME280;14852;51.910;8.878;2023-04-16T10:33:27;100304.63;;;14.66;59.63
26823;BME280;14852;51.910;8.878;2023-04-16T10:36:15;100306.59;;;14.63;60.07
26823;BME280;14852;51.910;8.878;2023-04-16T10:38:49;100307.03;;;14.55;59.52
26823;BME280;14852;51.910;8.878;2023-04-16T10:41:19;100307.88;;;14.56;59.99
26823;BME280;14852;51.910;8.878;2023-04-16T10:43:47;100308.66;;;14.58;59.29
26823;BME280;14852;51.910;8.878;2023-04-16T10:46:33;100309.75;;;14.68;59.53
26823;BME280;14852;51.910;8.878;2023-04-16T10:49:16;100309.31;;;14.75;58.97
26823;BME280;14852;51.910;8.878;2023-04-16T10:51:53;100307.34;;;14.79;59.06
26823;BME280;14852;51.910;8.878;2023-04-16T10:54:24;100310.53;;;14.84;59.01
26823;BME280;14852;51.910;8.878;2023-04-16T10:56:51;100309.03;;;14.94;58.92
26823;BME280;14852;51.910;8.878;2023-04-16T10:59:21;100306.50;;;15.07;59.04
26823;BME280;14852;51.910;8.878;2023-04-16T11:01:53;100305.56;;;15.08;58.79
26823;BME280;14852;51.910;8.878;2023-04-16T11:09:52;100306.22;;;14.97;59.17
26823;BME280;14852;51.910;8.878;2023-04-16T11:13:09;100310.88;;;14.92;58.92
26823;BME280;14852;51.910;8.878;2023-04-16T11:15:14;100311.66;;;14.94;58.88
26823;BME280;14852;51.910;8.878;2023-04-16T11:20:26;100315.09;;;14.95;58.77
26823;BME280;14852;51.910;8.878;2023-04-16T11:22:56;100312.03;;;14.88;58.93
26823;BME280;14852;51.910;8.878;2023-04-16T11:25:28;100309.59;;;14.85;58.66
26823;BME280;14852;51.910;8.878;2023-04-16T11:27:55;100314.00;;;14.84;58.60
26823;BME280;14852;51.910;8.878;2023-04-16T11:30:31;100321.19;;;14.81;58.35
26823;BME280;14852;51.910;8.878;2023-04-16T11:33:00;100309.69;;;14.83;58.88
26823;BME280;14852;51.910;8.878;2023-04-16T11:35:29;100320.50;;;14.92;58.48
26823;BME280;14852;51.910;8.878;2023-04-16T11:37:56;100315.38;;;14.90;58.41
26823;BME280;14852;51.910;8.878;2023-04-16T11:40:22;100313.81;;;14.88;58.58
26823;BME280;14852;51.910;8.878;2023-04-16T11:42:48;100315.66;;;14.85;58.33
26823;BME280;14852;51.910;8.878;2023-04-16T11:45:14;100327.91;;;14.85;57.98
26823;BME280;14852;51.910;8.878;2023-04-16T11:47:49;100317.44;;;14.85;58.23
26823;BME280;14852;51.910;8.878;2023-04-16T11:50:24;100323.88;;;14.79;57.99
26823;BME280;14852;51.910;8.878;2023-04-16T11:52:52;100325.75;;;14.77;57.58
26823;BME280;14852;51.910;8.878;2023-04-16T11:55:19;100326.69;;;14.76;58.27
26823;BME280;14852;51.910;8.878;2023-04-16T11:57:45;100329.41;;;14.75;57.99
26823;BME280;14852;51.910;8.878;2023-04-16T12:00:12;100340.97;;;14.71;58.02
26823;BME280;14852;51.910;8.878;2023-04-16T12:02:48;100337.69;;;14.67;57.85
26823;BME280;14852;51.910;8.878;2023-04-16T12:05:35;100346.47;;;14.66;58.19
26823;BME280;14852;51.910;8.878;2023-04-16T12:08:07;100339.34;;;14.54;57.91
26823;BME280;14852;51.910;8.878;2023-04-16T12:10:36;100346.75;;;14.47;58.09
26823;BME280;14852;51.910;8.878;2023-04-16T12:13:16;100341.69;;;14.44;57.83
26823;BME280;14852;51.910;8.878;2023-04-16T12:15:53;100353.06;;;14.43;58.21
26823;BME280;14852;51.910;8.878;2023-04-16T12:18:23;100358.28;;;14.43;58.35
26823;BME280;14852;51.910;8.878;2023-04-16T12:20:49;100351.38;;;14.42;58.29
26823;BME280;14852;51.910;8.878;2023-04-16T12:23:29;100348.69;;;14.44;58.27
26823;BME280;14852;51.910;8.878;2023-04-16T12:25:56;100352.06;;;14.46;57.82
26823;BME280;14852;51.910;8.878;2023-04-16T12:28:35;100347.50;;;14.49;58.12
26823;BME280;14852;51.910;8.878;2023-04-16T12:31:03;100355.16;;;14.53;57.80
26823;BME280;14852;51.910;8.878;2023-04-16T12:33:30;100355.88;;;14.55;57.40
26823;BME280;14852;51.910;8.878;2023-04-16T12:35:56;100349.81;;;14.54;57.78
26823;BME280;14852;51.910;8.878;2023-04-16T12:38:22;100356.00;;;14.53;57.55
26823;BME280;14852;51.910;8.878;2023-04-16T12:40:48;100356.00;;;14.53;57.92
26823;BME280;14852;51.910;8.878;2023-04-16T12:43:14;100359.34;;;14.55;57.89
26823;BME280;14852;51.910;8.878;2023-04-16T12:45:40;100353.19;;;14.56;58.04
26823;BME280;14852;51.910;8.878;2023-04-16T12:48:07;100359.19;;;14.58;57.82
26823;BME280;14852;51.910;8.878;2023-04-16T12:50:32;100359.19;;;14.58;57.54
26823;BME280;14852;51.910;8.878;2023-04-16T12:52:58;100361.31;;;14.66;57.72
26823;BME280;14852;51.910;8.878;2023-04-16T12:55:25;100356.88;;;14.82;57.12
26823;BME280;14852;51.910;8.878;2023-04-16T12:57:51;100362.13;;;14.96;57.06
26823;BME280;14852;51.910;8.878;2023-04-16T13:00:20;100362.13;;;15.10;56.83
26823;BME280;14852;51.910;8.878;2023-04-16T13:02:46;100356.50;;;15.16;56.47
26823;BME280;14852;51.910;8.878;2023-04-16T13:05:12;100355.38;;;15.20;56.46
26823;BME280;14852;51.910;8.878;2023-04-16T13:07:41;100358.75;;;15.23;56.53